Tropical Cyclones
[Index]
Main Index Home Page Stock Weather Photos Extreme Storms Discussion Storm News and Storm Chasing Reports Tropical Cyclones / Hurricanes / Typhoons Weather Data and Links Wild Fires / Bushfires Weather Observation Techniques Weather Picture Catalogue Tornado Pictures and Reports Stock Video Footage and DVDs for sale
Season 1978-1979 Tropical Cyclone JANE Track Map
Season 1978-1979 Summaries: [BoM-AU] [JTWC-AU] [JTWC-SIO] [JTWC-SPAC] [JTWC-SH]
<<- Previous TC | BoM 1978-1979 Season | Next TC ->>

click for intensity scale information  Lat/long Grid: Show Hide

 Date Labels: Show Hide

Bureau of Meteorology Tropical Cyclone Data

Name: JANE
Number: 593 / 197879_10

08 Apr 1979 00:00 UTC to 14 Apr 1979 00:00 UTC

    date/time    lat    long    hPa   cat  kts
1979-04-08 00    7.2    91.2   1000                     
1979-04-08 06    7.6    91.2    999                     
1979-04-08 12    8.2    91.1    999                     
1979-04-08 18    9.6    91.2    998                     
1979-04-09 00   10.9    91.8    998                     
1979-04-09 06   11.5    92.2    997                     
1979-04-09 12   11.9    92.6    996                     
1979-04-09 18   12.2    93.0    995    1                
1979-04-10 00   12.8    93.4    994    1                
1979-04-10 06   13.0    93.6    993    1                
1979-04-10 12   13.2    93.8    992    1                
1979-04-10 18   13.4    94.0    991    1                
1979-04-11 00   13.6    94.2    990    1                
1979-04-11 06   14.0    94.5    989    1                
1979-04-11 12   14.3    94.9    988    1                
1979-04-11 18   14.6    95.3    989    1                
1979-04-12 00   14.9    95.7    990    1                
1979-04-12 06   15.3    96.2    991    1                
1979-04-12 12   15.9    96.9    992    1                
1979-04-12 18   16.4    97.4    993    1                
1979-04-13 00   16.9    98.0    994    1                
1979-04-13 06   17.4    98.5    994    1                
1979-04-13 12   18.0    99.0    995    1                
1979-04-13 18   18.4    99.6    995    1                
1979-04-14 00   18.9   100.3    995    1                
Winds are 10-min average.

Tropical cyclone tracks developed by Michael Bath using data from the Bureau of Meteorology and Google Maps.


[Australian Severe Weather index] [Copyright Notice] [Email Contacts] [Search This Site] [Privacy Policy]
Document: tropical_cyclone_jane.htm Updated: 30 May 2013